Time;durP1;ratioP1;P1;durP2;ratioP2;P2;SDS_P1;SDS_P2;PMS_P1;PMS_P2;Temp;Humidity;BMP_temperature;BMP_pressure;BME280_temperature;BME280_humidity;BME280_pressure;Samples;Min_cycle;Max_cycle;Signal;HPM_P1;HPM_P2
2023/06/18 00:01:03;;;;;;;4.60;3.10;;;13.20;1.00;;;;;;5173299;28;20038;-69
2023/06/18 00:03:34;;;;;;;4.13;2.10;;;13.30;1.00;;;;;;5176999;28;20306;-70
2023/06/18 00:06:06;;;;;;;4.32;2.40;;;13.30;1.00;;;;;;5161661;28;20456;-70
2023/06/18 00:08:39;;;;;;;2.63;2.42;;;13.20;1.00;;;;;;5183770;28;20026;-67
2023/06/18 00:11:11;;;;;;;2.80;2.50;;;13.20;1.00;;;;;;5150841;28;20033;-69
2023/06/18 00:13:50;;;;;;;3.80;2.58;;;13.10;4.70;;;;;;5165383;28;20036;-69
2023/06/18 00:16:21;;;;;;;2.88;2.63;;;13.00;9.50;;;;;;5165064;28;20025;-68
2023/06/18 00:18:55;;;;;;;3.45;2.50;;;13.00;16.60;;;;;;5165923;28;20033;-69
2023/06/18 00:21:26;;;;;;;2.83;2.53;;;13.10;37.90;;;;;;5164478;28;20034;-70
2023/06/18 00:23:59;;;;;;;2.58;2.30;;;13.10;41.70;;;;;;5181745;28;20024;-70
2023/06/18 00:26:30;;;;;;;3.40;2.60;;;13.10;35.80;;;;;;5165311;28;20037;-70
2023/06/18 00:29:04;;;;;;;2.95;2.67;;;13.00;52.50;;;;;;5181512;28;20041;-70
2023/06/18 00:31:36;;;;;;;3.38;2.53;;;13.00;63.30;;;;;;5178798;28;20026;-70
2023/06/18 00:34:14;;;;;;;2.95;2.65;;;12.90;92.30;;;;;;5178455;28;20030;-67
2023/06/18 00:36:50;;;;;;;3.10;2.80;;;12.90;98.60;;;;;;5179809;28;20032;-68
2023/06/18 00:39:22;;;;;;;3.22;2.67;;;12.90;99.90;;;;;;5180853;28;20030;-69
2023/06/18 00:41:54;;;;;;;3.25;2.80;;;13.00;99.90;;;;;;5179662;28;20042;-68
2023/06/18 00:44:29;;;;;;;2.58;1.92;;;13.00;99.90;;;;;;5180734;28;20026;-69
2023/06/18 00:47:04;;;;;;;3.95;2.53;;;13.00;98.50;;;;;;5177613;28;20032;-69
2023/06/18 00:49:35;;;;;;;3.28;2.38;;;12.90;99.90;;;;;;5180936;28;20036;-68
2023/06/18 00:52:15;;;;;;;3.70;2.33;;;12.80;99.90;;;;;;5196342;28;20030;-69
2023/06/18 00:54:49;;;;;;;2.95;2.30;;;12.70;99.90;;;;;;5181660;28;20026;-70
2023/06/18 00:57:26;;;;;;;3.22;2.65;;;12.70;99.90;;;;;;5179583;28;20030;-69
2023/06/18 00:59:58;;;;;;;4.07;2.60;;;12.50;99.90;;;;;;5163757;28;20034;-67
2023/06/18 01:02:30;;;;;;;2.78;2.45;;;12.60;99.90;;;;;;5246676;22;20033;-85
2023/06/18 01:05:14;;;;;;;4.53;2.78;;;12.50;99.90;;;;;;5201698;28;20088;-87
2023/06/18 01:07:52;;;;;;;3.15;2.38;;;12.50;99.90;;;;;;5201890;28;20192;-86
2023/06/18 01:10:29;;;;;;;;;;;12.50;99.90;;;;;;5169714;28;20048;-86
2023/06/18 01:13:09;;;;;;;2.83;2.15;;;12.50;99.90;;;;;;5185119;28;19901;-86
2023/06/18 01:20:14;;;;;;;2.72;2.47;;;12.50;99.90;;;;;;5213483;28;20030;-85
2023/06/18 01:23:15;;;;;;;3.97;2.83;;;12.50;99.90;;;;;;5210150;28;20045;-87
2023/06/18 01:26:44;;;;;;;3.63;2.85;;;12.40;99.90;;;;;;5206167;28;20038;-86
2023/06/18 01:29:42;;;;;;;3.03;2.50;;;12.30;99.90;;;;;;5196578;28;20033;-86
2023/06/18 01:32:17;;;;;;;2.97;2.38;;;12.30;99.90;;;;;;5200731;28;20030;-87
2023/06/18 01:34:53;;;;;;;4.00;3.28;;;12.30;99.90;;;;;;5202751;28;20032;-86
2023/06/18 01:37:56;;;;;;;2.63;2.38;;;12.20;99.90;;;;;;5200930;28;20036;-86
2023/06/18 01:40:52;;;;;;;3.28;2.47;;;12.20;99.90;;;;;;5202775;28;20030;-85
2023/06/18 01:43:52;;;;;;;3.17;2.58;;;12.10;99.90;;;;;;5191552;28;20041;-86
2023/06/18 01:46:52;;;;;;;3.10;2.80;;;12.10;99.90;;;;;;5202810;28;20030;-86
2023/06/18 01:49:26;;;;;;;4.32;2.30;;;12.10;99.90;;;;;;5184609;28;20056;-85
2023/06/18 01:55:33;;;;;;;3.28;2.90;;;12.10;99.90;;;;;;5199077;28;20022;-88
2023/06/18 01:58:31;;;;;;;2.70;2.50;;;12.10;99.90;;;;;;5199629;28;20022;-86
2023/06/18 02:01:15;;;;;;;3.40;2.83;;;12.10;99.90;;;;;;5202179;28;20038;-87
2023/06/18 02:04:09;;;;;;;3.45;2.75;;;12.10;99.90;;;;;;5209223;28;20036;-85
2023/06/18 02:06:43;;;;;;;3.83;2.35;;;12.10;99.90;;;;;;5199702;28;20101;-85
2023/06/18 02:09:15;;;;;;;3.70;2.08;;;12.10;99.90;;;;;;5198233;28;20300;-85
2023/06/18 02:11:46;;;;;;;3.15;2.85;;;12.10;99.90;;;;;;5198160;28;20227;-85
2023/06/18 02:14:23;;;;;;;3.03;2.72;;;12.10;99.90;;;;;;5197892;28;20033;-85
2023/06/18 02:16:59;;;;;;;3.80;2.65;;;12.20;99.90;;;;;;5182484;28;20034;-85
2023/06/18 02:19:31;;;;;;;3.20;2.30;;;12.20;99.90;;;;;;5197909;28;20033;-85
2023/06/18 02:22:05;;;;;;;2.97;2.58;;;12.20;99.90;;;;;;5197510;28;20048;-85
2023/06/18 02:24:42;;;;;;;3.13;2.40;;;12.30;99.90;;;;;;5197949;28;20034;-86
2023/06/18 02:27:22;;;;;;;3.25;2.60;;;12.30;99.80;;;;;;5197371;28;20030;-86
2023/06/18 02:29:55;;;;;;;3.58;2.15;;;12.40;94.50;;;;;;5196340;28;20033;-86
2023/06/18 02:32:31;;;;;;;5.55;2.50;;;12.40;99.90;;;;;;5197821;28;20036;-85
2023/06/18 02:35:06;;;;;;;2.85;2.45;;;12.40;99.90;;;;;;5180681;28;20042;-86
2023/06/18 02:37:40;;;;;;;3.30;2.72;;;12.30;99.90;;;;;;5195146;28;20026;-86
2023/06/18 02:40:13;;;;;;;2.47;2.28;;;12.20;99.90;;;;;;5198266;28;20223;-85
2023/06/18 02:42:47;;;;;;;3.50;2.70;;;12.20;99.90;;;;;;5196669;28;20038;-86
2023/06/18 02:45:24;;;;;;;2.67;2.20;;;12.10;99.90;;;;;;5197209;28;20320;-85
2023/06/18 02:47:58;;;;;;;4.90;2.38;;;12.10;99.90;;;;;;5181327;28;20086;-85
2023/06/18 02:50:36;;;;;;;3.25;2.05;;;12.10;99.90;;;;;;5180572;28;20219;-86
2023/06/18 02:53:09;;;;;;;3.22;2.15;;;12.10;99.90;;;;;;5197581;28;20036;-86
2023/06/18 02:55:41;;;;;;;5.07;2.80;;;12.10;99.90;;;;;;5197300;28;20025;-86
2023/06/18 02:58:35;;;;;;;4.07;2.85;;;12.00;99.90;;;;;;5197438;28;20037;-86
2023/06/18 03:01:10;;;;;;;2.92;2.13;;;12.00;99.90;;;;;;5197734;28;20043;-86
2023/06/18 03:03:43;;;;;;;3.17;1.98;;;12.10;99.90;;;;;;5197874;28;20038;-86
2023/06/18 03:06:17;;;;;;;2.83;2.60;;;12.20;99.90;;;;;;5191298;28;20363;-87
2023/06/18 03:08:48;;;;;;;2.67;2.47;;;12.30;99.90;;;;;;5198018;28;20044;-87
2023/06/18 03:11:23;;;;;;;3.25;2.65;;;12.30;99.90;;;;;;5197434;28;20032;-86
2023/06/18 03:13:54;;;;;;;7.57;2.78;;;12.30;99.90;;;;;;5197439;28;20029;-86
2023/06/18 03:16:28;;;;;;;2.53;2.33;;;12.40;99.90;;;;;;5198487;28;20338;-86
2023/06/18 03:19:05;;;;;;;3.25;2.45;;;12.40;99.90;;;;;;5197039;28;20030;-87
2023/06/18 03:21:37;;;;;;;4.00;2.75;;;12.30;99.90;;;;;;5197735;28;20323;-86
2023/06/18 03:24:08;;;;;;;3.40;2.67;;;12.40;99.90;;;;;;5196668;28;20030;-87
2023/06/18 03:34:03;;;;;;;5.45;2.58;;;12.60;99.90;;;;;;5197279;28;20033;-63
2023/06/18 03:36:41;;;;;;;2.25;2.05;;;12.80;95.30;;;;;;5197603;28;20112;-60
2023/06/18 03:39:15;;;;;;;2.30;2.10;;;12.90;72.70;;;;;;5181386;28;20037;-63
2023/06/18 03:41:49;;;;;;;2.88;2.20;;;12.80;55.20;;;;;;5212767;28;20037;-63
2023/06/18 03:44:23;;;;;;;3.90;2.78;;;12.90;27.10;;;;;;5177764;28;20290;-66
2023/06/18 03:46:56;;;;;;;3.08;2.50;;;13.00;12.70;;;;;;5178393;28;20033;-62
2023/06/18 03:49:28;;;;;;;3.00;2.00;;;13.10;19.60;;;;;;5149410;28;20041;-69
2023/06/18 03:51:59;;;;;;;5.13;2.70;;;13.40;13.20;;;;;;5180897;28;20051;-63
2023/06/18 03:54:31;;;;;;;5.55;2.78;;;13.70;1.00;;;;;;5180617;28;20037;-63
2023/06/18 03:57:04;;;;;;;7.47;2.50;;;14.00;1.00;;;;;;5180566;28;20037;-64
2023/06/18 03:59:35;;;;;;;3.72;2.30;;;14.30;1.00;;;;;;5176285;28;20034;-63
2023/06/18 04:02:15;;;;;;;4.55;2.60;;;14.50;1.00;;;;;;5185577;28;20036;-64
2023/06/18 04:04:46;;;;;;;2.92;2.63;;;14.70;1.00;;;;;;5186470;28;20055;-62
2023/06/18 04:07:18;;;;;;;2.65;1.80;;;14.80;1.00;;;;;;5196980;28;20021;-64
2023/06/18 04:09:50;;;;;;;2.83;2.40;;;14.80;1.00;;;;;;5180082;28;20330;-66
2023/06/18 04:12:21;;;;;;;3.13;2.40;;;14.90;1.00;;;;;;5168968;28;20048;-66
2023/06/18 04:14:53;;;;;;;2.70;2.40;;;15.20;1.00;;;;;;5180775;28;20041;-63
2023/06/18 04:17:25;;;;;;;3.00;2.70;;;15.60;1.00;;;;;;5170025;28;20071;-64
2023/06/18 04:19:57;;;;;;;3.58;2.45;;;16.00;1.00;;;;;;5195222;28;20056;-62
2023/06/18 04:22:31;;;;;;;3.28;2.35;;;16.30;1.00;;;;;;5195695;28;20321;-66
2023/06/18 04:25:06;;;;;;;3.53;2.53;;;16.40;1.00;;;;;;5187037;28;20033;-64
2023/06/18 04:27:41;;;;;;;3.67;2.47;;;16.40;1.00;;;;;;5195536;28;20252;-65
2023/06/18 04:30:12;;;;;;;2.90;2.60;;;16.50;1.00;;;;;;5187920;28;20044;-65
2023/06/18 04:32:44;;;;;;;4.43;2.90;;;16.60;1.00;;;;;;5154796;28;20051;-62
2023/06/18 04:35:18;;;;;;;2.83;2.40;;;16.50;1.00;;;;;;5186059;28;20041;-63
2023/06/18 04:37:52;;;;;;;2.55;2.20;;;16.60;1.00;;;;;;5179095;28;20067;-63
2023/06/18 04:40:27;;;;;;;3.72;2.35;;;16.80;1.00;;;;;;5166548;28;20033;-64
2023/06/18 04:43:01;;;;;;;2.83;2.50;;;16.90;1.00;;;;;;5189865;28;20041;-65
2023/06/18 04:45:37;;;;;;;3.25;2.95;;;17.10;1.00;;;;;;5178574;28;20043;-63
2023/06/18 04:48:09;;;;;;;2.40;2.10;;;17.20;1.00;;;;;;5200266;28;20316;-66
2023/06/18 04:50:41;;;;;;;2.42;2.00;;;17.30;99.90;;;;;;5201018;28;20230;-63
2023/06/18 04:53:18;;;;;;;3.00;2.42;;;17.40;1.00;;;;;;5171956;28;20685;-64
2023/06/18 04:55:52;;;;;;;3.17;2.60;;;17.20;99.90;;;;;;5163700;28;20048;-61
2023/06/18 04:58:24;;;;;;;3.67;1.92;;;17.00;99.90;;;;;;5162199;28;20034;-62
2023/06/18 05:00:55;;;;;;;3.50;2.65;;;17.10;1.00;;;;;;5177804;28;20191;-63
2023/06/18 05:03:27;;;;;;;3.42;2.03;;;17.40;99.90;;;;;;5199574;28;20036;-62
2023/06/18 05:05:58;;;;;;;2.50;2.20;;;17.50;99.90;;;;;;5179098;28;20045;-64
2023/06/18 05:08:30;;;;;;;3.30;2.33;;;17.90;99.90;;;;;;5184382;28;20042;-64
2023/06/18 05:11:01;;;;;;;3.20;2.08;;;18.10;99.90;;;;;;5177743;28;20132;-63
2023/06/18 05:13:37;;;;;;;4.55;2.45;;;18.40;99.90;;;;;;5189493;28;20037;-65
2023/06/18 05:16:14;;;;;;;3.65;2.65;;;18.50;99.90;;;;;;5180755;28;20025;-63
2023/06/18 05:18:49;;;;;;;2.95;2.40;;;18.90;99.90;;;;;;5183322;28;20044;-62
2023/06/18 05:21:21;;;;;;;3.10;2.15;;;19.00;99.90;;;;;;5199529;28;20041;-62
2023/06/18 05:23:55;;;;;;;3.10;2.33;;;19.10;99.90;;;;;;5179718;28;20479;-64
2023/06/18 05:26:26;;;;;;;3.13;2.10;;;19.60;99.90;;;;;;5172588;28;20037;-65
2023/06/18 05:28:58;;;;;;;2.35;2.13;;;19.90;99.90;;;;;;5175839;28;20073;-63
2023/06/18 05:31:32;;;;;;;2.58;2.00;;;20.20;99.90;;;;;;5196454;28;20346;-63
2023/06/18 05:34:03;;;;;;;2.35;2.15;;;20.30;60.50;;;;;;5190617;28;20056;-63
2023/06/18 05:36:34;;;;;;;3.13;2.28;;;20.70;17.70;;;;;;5180078;28;20440;-63
2023/06/18 05:39:06;;;;;;;3.55;2.67;;;21.00;1.00;;;;;;5194444;28;20037;-62
2023/06/18 05:41:37;;;;;;;2.38;2.05;;;21.00;1.00;;;;;;5199688;28;20041;-62
2023/06/18 05:44:11;;;;;;;4.82;2.25;;;21.00;1.00;;;;;;5212697;28;20342;-62
2023/06/18 05:46:45;;;;;;;2.35;2.05;;;21.20;1.00;;;;;;5196770;28;20400;-62
2023/06/18 05:49:17;;;;;;;;;;;21.30;1.00;;;;;;5167094;28;20037;-64
2023/06/18 05:51:48;;;;;;;2.10;1.88;;;21.50;1.00;;;;;;5214395;28;19912;-63
2023/06/18 05:54:19;;;;;;;2.03;1.90;;;21.80;1.00;;;;;;5194446;28;20038;-63
2023/06/18 05:56:51;;;;;;;2.80;1.98;;;22.00;99.90;;;;;;5162143;28;20356;-62
2023/06/18 05:59:28;;;;;;;1.75;1.65;;;22.20;99.90;;;;;;5192888;28;20041;-61
2023/06/18 06:02:02;;;;;;;1.85;1.73;;;22.60;1.00;;;;;;5168658;28;20036;-60
2023/06/18 06:04:35;;;;;;;2.30;1.95;;;23.10;1.00;;;;;;5173070;28;20057;-63
2023/06/18 06:07:07;;;;;;;3.05;2.20;;;23.20;99.90;;;;;;5190254;28;20040;-61
2023/06/18 06:09:38;;;;;;;2.97;2.33;;;22.90;99.90;;;;;;5190404;28;20037;-63
2023/06/18 06:12:11;;;;;;;4.15;2.10;;;22.90;99.90;;;;;;5181596;28;20041;-64
2023/06/18 06:14:44;;;;;;;2.78;1.83;;;23.00;99.90;;;;;;5194266;28;20293;-66
2023/06/18 06:17:18;;;;;;;2.97;2.13;;;23.60;99.90;;;;;;5163156;28;20030;-64
2023/06/18 06:19:49;;;;;;;6.05;2.90;;;24.00;99.90;;;;;;5214925;28;20039;-64
2023/06/18 06:22:23;;;;;;;4.22;2.40;;;23.90;97.00;;;;;;5199675;28;20041;-61
2023/06/18 06:24:54;;;;;;;3.28;2.28;;;23.60;1.00;;;;;;5179297;28;20048;-62
2023/06/18 06:27:25;;;;;;;2.22;2.00;;;23.50;1.00;;;;;;5169922;28;20021;-62
2023/06/18 06:29:59;;;;;;;1.85;1.75;;;23.20;1.00;;;;;;5196689;28;20025;-63
2023/06/18 06:32:30;;;;;;;2.50;2.05;;;23.20;99.90;;;;;;5174519;28;20041;-62
2023/06/18 06:35:07;;;;;;;3.28;2.17;;;23.80;99.90;;;;;;5199946;28;20025;-63
2023/06/18 06:37:44;;;;;;;2.50;2.15;;;24.30;1.00;;;;;;5194185;28;20042;-67
2023/06/18 06:40:17;;;;;;;2.67;2.03;;;24.80;1.00;;;;;;5187970;28;20489;-60
2023/06/18 06:42:50;;;;;;;2.55;1.90;;;25.40;99.90;;;;;;5183177;28;20037;-63
2023/06/18 06:45:22;;;;;;;2.22;1.90;;;26.10;99.90;;;;;;5184344;28;20041;-64
2023/06/18 06:47:57;;;;;;;3.42;2.05;;;26.40;1.00;;;;;;5177930;28;20164;-63
2023/06/18 06:50:29;;;;;;;2.33;1.90;;;26.50;1.00;;;;;;5199218;28;20143;-62
2023/06/18 06:53:04;;;;;;;2.00;1.80;;;26.90;99.90;;;;;;5169036;28;20038;-63
2023/06/18 06:55:37;;;;;;;1.77;1.63;;;27.20;1.00;;;;;;5194384;28;20029;-65
2023/06/18 06:58:09;;;;;;;1.80;1.63;;;27.20;99.90;;;;;;5187358;28;20029;-65
2023/06/18 07:00:43;;;;;;;2.15;1.83;;;27.50;99.90;;;;;;5177407;28;20037;-66
2023/06/18 07:03:17;;;;;;;2.78;2.03;;;27.40;1.00;;;;;;5196087;28;20049;-64
2023/06/18 07:05:49;;;;;;;2.38;1.90;;;27.50;99.90;;;;;;5171881;28;20064;-63
2023/06/18 07:08:20;;;;;;;2.15;1.95;;;27.40;1.00;;;;;;5192636;28;20041;-65
2023/06/18 07:10:52;;;;;;;1.95;1.70;;;27.20;1.00;;;;;;5177070;28;20034;-66
2023/06/18 07:13:26;;;;;;;3.03;2.22;;;27.50;1.00;;;;;;5180418;28;20031;-63
2023/06/18 07:15:58;;;;;;;2.33;1.88;;;27.70;1.00;;;;;;5177654;28;20472;-65
2023/06/18 07:18:31;;;;;;;2.40;2.20;;;28.00;1.00;;;;;;5184609;28;20589;-65
2023/06/18 07:21:03;;;;;;;3.40;2.42;;;27.80;1.00;;;;;;5168194;28;20057;-63
2023/06/18 07:23:37;;;;;;;2.88;1.92;;;27.70;1.00;;;;;;5182688;28;20037;-64
2023/06/18 07:26:10;;;;;;;3.05;1.95;;;27.30;1.00;;;;;;5179511;28;20559;-67
2023/06/18 07:28:44;;;;;;;2.47;2.07;;;27.10;1.00;;;;;;5192156;28;20033;-65
2023/06/18 07:31:16;;;;;;;2.05;1.88;;;27.20;1.00;;;;;;5194747;28;20042;-67
2023/06/18 07:33:53;;;;;;;2.85;2.20;;;27.40;1.00;;;;;;5191574;28;20056;-65
2023/06/18 07:36:24;;;;;;;3.55;2.22;;;27.70;1.00;;;;;;5178129;28;20034;-64
2023/06/18 07:38:56;;;;;;;3.25;2.35;;;27.50;1.00;;;;;;5175118;28;20032;-65
2023/06/18 07:41:28;;;;;;;2.45;2.05;;;27.70;1.00;;;;;;5176399;28;20033;-64
2023/06/18 07:43:59;;;;;;;3.58;2.33;;;27.70;1.00;;;;;;5182296;28;20043;-64
2023/06/18 07:46:31;;;;;;;4.18;2.42;;;27.90;1.00;;;;;;5163437;28;20048;-65
2023/06/18 07:49:02;;;;;;;4.28;2.30;;;27.80;1.00;;;;;;5177765;28;20033;-65
2023/06/18 07:51:36;;;;;;;3.15;2.30;;;27.90;1.00;;;;;;5185187;28;20041;-65
2023/06/18 07:54:07;;;;;;;2.30;2.03;;;27.90;1.00;;;;;;5180197;28;20374;-64
2023/06/18 07:56:42;;;;;;;2.65;1.92;;;28.10;1.00;;;;;;5180096;28;20025;-64
2023/06/18 07:59:16;;;;;;;3.15;2.38;;;28.00;1.00;;;;;;5189346;28;20037;-65
2023/06/18 08:01:50;;;;;;;2.88;1.90;;;27.80;99.90;;;;;;5179737;28;20047;-64
2023/06/18 08:04:21;;;;;;;4.35;2.72;;;27.90;99.90;;;;;;5170343;28;20037;-68
2023/06/18 08:06:53;;;;;;;3.05;2.22;;;28.10;99.90;;;;;;5196421;28;20044;-64
2023/06/18 08:09:26;;;;;;;3.20;2.45;;;27.80;99.90;;;;;;5172679;28;20417;-64
2023/06/18 08:11:58;;;;;;;2.90;2.00;;;27.70;99.90;;;;;;5197043;28;20345;-66
2023/06/18 08:14:29;;;;;;;3.90;2.60;;;28.10;99.90;;;;;;5202638;28;20025;-62
2023/06/18 08:17:03;;;;;;;3.25;2.38;;;27.80;99.90;;;;;;5180336;28;20036;-63
2023/06/18 08:19:35;;;;;;;3.33;2.45;;;27.40;36.20;;;;;;5161774;28;20034;-67
2023/06/18 08:22:06;;;;;;;2.92;2.42;;;27.60;1.00;;;;;;5164497;28;20040;-63
2023/06/18 08:24:37;;;;;;;2.97;2.33;;;28.10;9.90;;;;;;5189076;28;20036;-62
2023/06/18 08:27:09;;;;;;;3.15;2.60;;;28.20;31.20;;;;;;5200897;28;20363;-62
2023/06/18 08:29:42;;;;;;;2.97;2.25;;;28.70;1.00;;;;;;5185003;28;20256;-64
2023/06/18 08:32:14;;;;;;;3.58;2.58;;;29.10;68.50;;;;;;5176455;28;20374;-63
2023/06/18 08:34:46;;;;;;;2.88;2.40;;;29.20;99.90;;;;;;5200783;28;20029;-64
2023/06/18 08:37:17;;;;;;;4.97;2.67;;;29.60;1.00;;;;;;5201492;28;20341;-66
2023/06/18 08:39:51;;;;;;;4.20;2.53;;;29.90;1.00;;;;;;5197710;28;20037;-67
2023/06/18 08:42:28;;;;;;;4.00;2.42;;;29.60;1.00;;;;;;5200605;28;20034;-64
2023/06/18 08:44:59;;;;;;;3.17;2.40;;;29.90;99.90;;;;;;5218102;28;20035;-63
2023/06/18 08:47:33;;;;;;;2.83;2.28;;;29.90;2.00;;;;;;5200719;28;20345;-65
2023/06/18 08:50:06;;;;;;;3.35;2.45;;;29.80;1.00;;;;;;5196154;28;20025;-66
2023/06/18 08:52:41;;;;;;;2.10;1.90;;;28.80;1.00;;;;;;5179868;28;20051;-65
2023/06/18 08:55:14;;;;;;;3.85;2.42;;;29.40;1.00;;;;;;5164303;28;20056;-62
2023/06/18 08:58:02;;;;;;;2.90;2.60;;;30.10;1.00;;;;;;5190618;28;20047;-66
2023/06/18 09:00:33;;;;;;;3.33;2.25;;;30.10;1.00;;;;;;5198654;28;20040;-62
2023/06/18 09:03:11;;;;;;;2.67;2.40;;;30.60;1.00;;;;;;5184748;28;20037;-67
2023/06/18 09:05:45;;;;;;;3.00;2.22;;;31.00;1.00;;;;;;5194867;28;20053;-64
2023/06/18 09:08:17;;;;;;;2.42;2.00;;;30.70;1.00;;;;;;5200355;28;20036;-67
2023/06/18 09:10:49;;;;;;;3.90;2.30;;;30.80;1.00;;;;;;5197567;28;20041;-64
2023/06/18 09:13:22;;;;;;;2.95;2.53;;;30.80;1.00;;;;;;5215171;28;20029;-64
2023/06/18 09:15:57;;;;;;;3.15;2.65;;;30.50;1.00;;;;;;5194284;28;20033;-64
2023/06/18 09:18:28;;;;;;;2.90;2.33;;;30.60;1.00;;;;;;5179507;28;20026;-64
2023/06/18 09:20:59;;;;;;;4.10;2.58;;;30.60;1.00;;;;;;5180055;28;20342;-60
2023/06/18 09:23:35;;;;;;;3.35;2.70;;;30.90;1.00;;;;;;5179951;28;20034;-64
2023/06/18 09:26:07;;;;;;;3.53;2.65;;;30.80;1.00;;;;;;5200196;28;20553;-64
2023/06/18 09:28:38;;;;;;;2.78;2.22;;;31.10;1.00;;;;;;5193912;28;20026;-64
2023/06/18 09:31:12;;;;;;;4.32;3.00;;;31.30;1.00;;;;;;5159914;28;20045;-64
2023/06/18 09:33:43;;;;;;;2.88;2.33;;;31.80;1.00;;;;;;5180813;28;20045;-64
2023/06/18 09:36:17;;;;;;;2.50;2.30;;;32.10;1.00;;;;;;5180860;28;20038;-65
2023/06/18 09:38:48;;;;;;;2.85;2.22;;;32.40;1.00;;;;;;5163386;28;20065;-63
2023/06/18 09:41:22;;;;;;;3.45;2.60;;;32.40;1.00;;;;;;5179699;28;20506;-64
2023/06/18 09:43:56;;;;;;;3.20;2.75;;;32.50;1.00;;;;;;5197468;28;20026;-65
2023/06/18 09:46:31;;;;;;;3.50;2.75;;;32.30;1.00;;;;;;5193542;28;20052;-64
2023/06/18 09:49:02;;;;;;;2.25;2.05;;;32.30;1.00;;;;;;5183461;28;20033;-64
2023/06/18 09:51:40;;;;;;;4.07;2.97;;;31.60;1.00;;;;;;5198496;28;20458;-63
2023/06/18 09:54:11;;;;;;;4.35;2.58;;;31.50;1.00;;;;;;5180380;28;20591;-61
2023/06/18 09:57:02;;;;;;;3.17;2.88;;;31.80;1.00;;;;;;5179840;28;20036;-61
2023/06/18 09:59:37;;;;;;;3.95;2.78;;;31.90;1.00;;;;;;5199276;28;20040;-65
2023/06/18 10:02:13;;;;;;;2.90;2.45;;;30.90;1.00;;;;;;5175685;28;20041;-64
2023/06/18 10:04:47;;;;;;;3.20;2.55;;;30.80;1.00;;;;;;5182391;28;20040;-65
2023/06/18 10:07:20;;;;;;;2.95;2.65;;;31.90;1.00;;;;;;5176402;28;20049;-63
2023/06/18 10:09:53;;;;;;;3.25;2.53;;;32.50;1.00;;;;;;5195917;28;20354;-64
2023/06/18 10:12:27;;;;;;;3.03;2.72;;;32.90;1.00;;;;;;5199001;28;20033;-61
2023/06/18 10:14:59;;;;;;;3.85;3.25;;;33.30;1.00;;;;;;5182122;28;20244;-61
2023/06/18 10:17:35;;;;;;;3.33;2.70;;;33.60;1.00;;;;;;5175506;28;20040;-66
2023/06/18 10:20:08;;;;;;;3.35;2.55;;;33.90;1.00;;;;;;5195229;28;20028;-63
2023/06/18 10:22:54;;;;;;;3.33;3.03;;;34.60;1.00;;;;;;5178751;28;20045;-62
2023/06/18 10:25:28;;;;;;;3.25;2.95;;;34.90;1.00;;;;;;5195484;28;20041;-62
2023/06/18 10:27:59;;;;;;;4.18;2.80;;;34.90;1.00;;;;;;5178686;28;20044;-60
2023/06/18 10:30:35;;;;;;;3.75;2.80;;;34.60;1.00;;;;;;5165961;28;20029;-64
2023/06/18 10:33:09;;;;;;;2.83;2.47;;;34.50;1.00;;;;;;5198848;28;20037;-65
2023/06/18 10:35:46;;;;;;;;;;;34.70;1.00;;;;;;5179381;28;20027;-65
2023/06/18 10:38:20;;;;;;;3.20;2.90;;;35.10;1.00;;;;;;5197802;28;19909;-64
2023/06/18 10:41:12;;;;;;;3.60;2.90;;;35.90;1.00;;;;;;5198432;28;20032;-64
2023/06/18 10:43:48;;;;;;;2.78;2.33;;;36.60;99.90;;;;;;5197705;28;20399;-63
2023/06/18 10:46:21;;;;;;;3.90;3.05;;;37.30;99.90;;;;;;5196724;28;20040;-64
2023/06/18 10:49:11;;;;;;;;;;;37.00;1.00;;;;;;5198563;28;20044;-64
2023/06/18 10:51:58;;;;;;;3.58;2.95;;;36.40;1.00;;;;;;5197247;28;20363;-63
2023/06/18 10:54:33;;;;;;;3.13;2.67;;;36.00;1.00;;;;;;5196583;28;20039;-66
2023/06/18 10:57:05;;;;;;;3.65;2.78;;;36.50;1.00;;;;;;5195752;28;20029;-65
2023/06/18 10:59:46;;;;;;;3.30;2.60;;;35.90;1.00;;;;;;5183665;28;20034;-66
2023/06/18 11:02:33;;;;;;;3.58;3.00;;;34.50;1.00;;;;;;5211018;28;20025;-64
2023/06/18 11:05:05;;;;;;;3.15;2.80;;;33.40;99.90;;;;;;5194969;28;20088;-61
2023/06/18 11:07:39;;;;;;;4.78;2.90;;;33.30;99.90;;;;;;5189821;28;20032;-63
2023/06/18 11:10:11;;;;;;;3.58;2.83;;;32.80;99.90;;;;;;5213637;28;20044;-66
2023/06/18 11:12:44;;;;;;;3.63;3.00;;;32.50;99.90;;;;;;5180097;28;20447;-62
2023/06/18 11:15:18;;;;;;;3.28;2.88;;;32.60;99.90;;;;;;5210046;28;20048;-63
2023/06/18 11:17:53;;;;;;;;;;;34.40;99.90;;;;;;5197051;28;20049;-65
2023/06/18 11:20:24;;;;;;;3.60;2.75;;;36.80;1.00;;;;;;5195071;28;19912;-61
2023/06/18 11:22:56;;;;;;;5.72;3.42;;;39.00;1.00;;;;;;5180284;28;20030;-62
2023/06/18 11:25:29;;;;;;;5.95;3.30;;;40.50;1.00;;;;;;5212509;28;20043;-64
2023/06/18 11:28:02;;;;;;;5.90;2.92;;;39.50;1.00;;;;;;5205163;28;20036;-65
2023/06/18 11:30:37;;;;;;;3.30;3.00;;;38.00;1.00;;;;;;5177143;28;20030;-66
2023/06/18 11:33:09;;;;;;;4.18;3.25;;;38.40;1.00;;;;;;5210014;28;20033;-62
2023/06/18 11:35:44;;;;;;;3.30;2.90;;;38.80;1.00;;;;;;5196770;28;20036;-63
2023/06/18 11:38:17;;;;;;;3.45;3.15;;;38.30;1.00;;;;;;5179701;28;20044;-60
2023/06/18 11:40:50;;;;;;;3.85;2.95;;;36.80;1.00;;;;;;5212968;28;20025;-63
2023/06/18 11:43:21;;;;;;;3.10;2.67;;;35.60;1.00;;;;;;5210979;28;20349;-61
2023/06/18 11:45:53;;;;;;;2.90;2.50;;;34.40;1.00;;;;;;5192991;28;20371;-63
2023/06/18 11:48:25;;;;;;;2.65;2.40;;;34.20;1.00;;;;;;5212981;28;20064;-61
2023/06/18 11:51:00;;;;;;;3.88;3.00;;;34.20;1.00;;;;;;5193468;28;20238;-65
2023/06/18 11:53:32;;;;;;;3.65;3.10;;;34.10;1.00;;;;;;5194239;28;20467;-64
2023/06/18 11:56:08;;;;;;;2.95;2.65;;;34.20;1.00;;;;;;5201499;28;20055;-68
2023/06/18 11:58:39;;;;;;;2.65;2.42;;;35.30;1.00;;;;;;5191190;28;20266;-62
2023/06/18 12:01:16;;;;;;;3.75;2.65;;;36.60;1.00;;;;;;5199015;28;20036;-62
2023/06/18 12:03:50;;;;;;;3.65;3.35;;;35.30;1.00;;;;;;5198604;28;20040;-63
2023/06/18 12:06:23;;;;;;;;;;;35.70;1.00;;;;;;5187210;28;20037;-62
2023/06/18 12:09:03;;;;;;;4.18;2.95;;;36.30;1.00;;;;;;5200763;28;20251;-64
2023/06/18 12:12:09;;;;;;;3.80;2.78;;;37.00;1.00;;;;;;5201123;28;20026;-63
2023/06/18 12:15:20;;;;;;;5.25;3.05;;;35.90;1.00;;;;;;5214520;28;20029;-63
2023/06/18 12:17:53;;;;;;;6.72;3.58;;;36.90;1.00;;;;;;5216521;28;20033;-63
2023/06/18 12:20:28;;;;;;;4.20;3.20;;;36.60;99.90;;;;;;5216961;28;20353;-60
2023/06/18 12:23:05;;;;;;;2.70;2.50;;;37.10;1.00;;;;;;5199635;28;20030;-62
2023/06/18 12:25:38;;;;;;;4.07;3.58;;;36.70;1.00;;;;;;5202544;28;20033;-63
2023/06/18 12:28:10;;;;;;;3.60;3.10;;;36.80;1.00;;;;;;5195471;28;20024;-63
2023/06/18 12:30:42;;;;;;;4.85;3.22;;;37.30;99.90;;;;;;5214563;28;20301;-60
2023/06/18 12:33:15;;;;;;;3.17;2.88;;;37.60;99.90;;;;;;5216264;28;20041;-64
2023/06/18 12:35:54;;;;;;;3.70;2.53;;;38.00;1.00;;;;;;5199933;28;20037;-63
2023/06/18 12:38:25;;;;;;;3.55;2.85;;;36.50;99.90;;;;;;5200407;28;20030;-64
2023/06/18 12:40:58;;;;;;;3.75;3.00;;;35.50;99.90;;;;;;5217439;28;20314;-61
2023/06/18 12:43:29;;;;;;;2.78;2.58;;;34.60;99.90;;;;;;5207071;28;20242;-63
2023/06/18 12:46:03;;;;;;;3.88;3.33;;;34.70;99.90;;;;;;5178157;28;20326;-64
2023/06/18 12:48:40;;;;;;;5.03;3.15;;;34.90;99.90;;;;;;5197249;28;20025;-63
2023/06/18 12:51:13;;;;;;;4.88;2.90;;;34.10;99.90;;;;;;5199328;28;20052;-60
2023/06/18 12:53:45;;;;;;;3.97;2.70;;;35.50;99.90;;;;;;5196811;28;20017;-64
2023/06/18 12:56:20;;;;;;;4.00;3.00;;;36.20;99.90;;;;;;5203494;28;20045;-64
2023/06/18 12:58:56;;;;;;;3.08;2.53;;;37.30;99.90;;;;;;5188583;28;20022;-63
2023/06/18 13:01:28;;;;;;;3.28;2.95;;;37.30;99.90;;;;;;5197633;28;20451;-63
2023/06/18 13:04:04;;;;;;;3.58;2.97;;;36.50;99.90;;;;;;5216791;28;20104;-61
2023/06/18 13:06:39;;;;;;;4.18;3.30;;;35.70;99.90;;;;;;5186734;28;20037;-62
2023/06/18 13:09:10;;;;;;;3.70;3.13;;;35.90;99.90;;;;;;5186499;28;20022;-62
2023/06/18 13:11:45;;;;;;;4.68;3.10;;;35.60;99.90;;;;;;5198362;28;20033;-65
2023/06/18 13:14:18;;;;;;;4.45;3.17;;;35.70;99.90;;;;;;5206843;28;20044;-62
2023/06/18 13:17:00;;;;;;;3.67;2.88;;;35.20;99.90;;;;;;5195862;28;20021;-64
2023/06/18 13:19:32;;;;;;;4.82;3.15;;;36.40;99.90;;;;;;5198839;28;20037;-66
2023/06/18 13:22:03;;;;;;;3.25;2.95;;;36.90;99.90;;;;;;5198291;28;20025;-64
2023/06/18 13:24:35;;;;;;;3.15;2.80;;;37.30;99.90;;;;;;5200511;28;20019;-63
2023/06/18 13:27:08;;;;;;;3.33;2.60;;;36.00;99.90;;;;;;5216371;28;20041;-62
2023/06/18 13:29:39;;;;;;;3.33;2.63;;;35.00;99.90;;;;;;5180042;28;20024;-63
2023/06/18 13:32:13;;;;;;;3.72;2.88;;;34.10;99.90;;;;;;5197949;28;20053;-63
2023/06/18 13:34:45;;;;;;;3.25;2.78;;;35.00;99.90;;;;;;5215007;28;20439;-64
2023/06/18 13:37:17;;;;;;;3.70;3.05;;;35.90;99.90;;;;;;5202174;28;20038;-65
2023/06/18 13:39:49;;;;;;;3.53;2.85;;;36.30;99.90;;;;;;5197948;28;20033;-64
2023/06/18 13:42:24;;;;;;;3.08;2.78;;;37.10;1.00;;;;;;5202550;28;20026;-62
2023/06/18 13:44:58;;;;;;;3.20;2.95;;;39.00;1.00;;;;;;5183775;28;20554;-69
2023/06/18 13:47:30;;;;;;;3.13;2.83;;;41.60;1.00;;;;;;5213715;28;20029;-65